sensor_id;sensor_type;location;lat;lon;timestamp;P1;durP1;ratioP1;P2;durP2;ratioP2
11986;SDS011;6053;51.382;6.768;2023-04-08T00:02:11;1.00;;;1.00;;
11986;SDS011;6053;51.382;6.768;2023-04-08T00:04:40;1.10;;;1.10;;
11986;SDS011;6053;51.382;6.768;2023-04-08T00:07:09;1.15;;;1.15;;
11986;SDS011;6053;51.382;6.768;2023-04-08T00:09:39;1.20;;;1.20;;
11986;SDS011;6053;51.382;6.768;2023-04-08T00:12:07;1.17;;;1.17;;
11986;SDS011;6053;51.382;6.768;2023-04-08T00:14:36;1.20;;;1.20;;
11986;SDS011;6053;51.382;6.768;2023-04-08T00:17:06;1.30;;;1.30;;
11986;SDS011;6053;51.382;6.768;2023-04-08T00:19:35;0.93;;;0.93;;
11986;SDS011;6053;51.382;6.768;2023-04-08T00:22:03;1.65;;;1.55;;
11986;SDS011;6053;51.382;6.768;2023-04-08T00:24:32;1.13;;;1.13;;
11986;SDS011;6053;51.382;6.768;2023-04-08T00:27:02;1.10;;;1.10;;
11986;SDS011;6053;51.382;6.768;2023-04-08T00:29:31;1.10;;;1.10;;
11986;SDS011;6053;51.382;6.768;2023-04-08T00:31:59;1.30;;;1.30;;
11986;SDS011;6053;51.382;6.768;2023-04-08T00:34:28;1.20;;;1.20;;
11986;SDS011;6053;51.382;6.768;2023-04-08T00:36:56;1.30;;;1.20;;
11986;SDS011;6053;51.382;6.768;2023-04-08T00:39:24;1.05;;;1.05;;
11986;SDS011;6053;51.382;6.768;2023-04-08T00:41:52;1.10;;;1.10;;
11986;SDS011;6053;51.382;6.768;2023-04-08T00:44:22;1.10;;;1.10;;
11986;SDS011;6053;51.382;6.768;2023-04-08T00:46:51;1.10;;;1.10;;
11986;SDS011;6053;51.382;6.768;2023-04-08T00:49:19;1.20;;;1.20;;
11986;SDS011;6053;51.382;6.768;2023-04-08T00:51:47;1.20;;;1.20;;
11986;SDS011;6053;51.382;6.768;2023-04-08T00:54:16;1.02;;;1.02;;
11986;SDS011;6053;51.382;6.768;2023-04-08T00:56:44;1.10;;;1.10;;
11986;SDS011;6053;51.382;6.768;2023-04-08T00:59:12;1.17;;;1.13;;
11986;SDS011;6053;51.382;6.768;2023-04-08T01:01:43;1.13;;;1.13;;
11986;SDS011;6053;51.382;6.768;2023-04-08T01:04:23;1.30;;;1.30;;
11986;SDS011;6053;51.382;6.768;2023-04-08T01:07:00;1.30;;;1.30;;
11986;SDS011;6053;51.382;6.768;2023-04-08T01:09:38;1.00;;;1.00;;
11986;SDS011;6053;51.382;6.768;2023-04-08T01:12:11;1.00;;;1.00;;
11986;SDS011;6053;51.382;6.768;2023-04-08T01:14:46;1.58;;;1.58;;
11986;SDS011;6053;51.382;6.768;2023-04-08T01:17:19;1.00;;;1.00;;
11986;SDS011;6053;51.382;6.768;2023-04-08T01:19:49;1.20;;;1.10;;
11986;SDS011;6053;51.382;6.768;2023-04-08T01:22:20;1.10;;;1.10;;
11986;SDS011;6053;51.382;6.768;2023-04-08T01:24:54;1.85;;;1.75;;
11986;SDS011;6053;51.382;6.768;2023-04-08T01:27:30;1.10;;;1.10;;
11986;SDS011;6053;51.382;6.768;2023-04-08T01:29:59;1.48;;;1.48;;
11986;SDS011;6053;51.382;6.768;2023-04-08T01:32:29;1.35;;;1.35;;
11986;SDS011;6053;51.382;6.768;2023-04-08T01:35:00;0.90;;;0.90;;
11986;SDS011;6053;51.382;6.768;2023-04-08T01:37:29;1.40;;;1.40;;
11986;SDS011;6053;51.382;6.768;2023-04-08T01:39:59;0.93;;;0.93;;
11986;SDS011;6053;51.382;6.768;2023-04-08T01:42:28;1.95;;;1.85;;
11986;SDS011;6053;51.382;6.768;2023-04-08T01:45:00;0.98;;;0.98;;
11986;SDS011;6053;51.382;6.768;2023-04-08T01:47:30;1.00;;;1.00;;
11986;SDS011;6053;51.382;6.768;2023-04-08T01:50:00;1.00;;;1.00;;
11986;SDS011;6053;51.382;6.768;2023-04-08T01:52:29;0.82;;;0.82;;
11986;SDS011;6053;51.382;6.768;2023-04-08T01:55:01;0.95;;;0.95;;
11986;SDS011;6053;51.382;6.768;2023-04-08T01:57:32;1.00;;;1.00;;
11986;SDS011;6053;51.382;6.768;2023-04-08T02:00:05;0.90;;;0.90;;
11986;SDS011;6053;51.382;6.768;2023-04-08T02:02:37;1.03;;;1.03;;
11986;SDS011;6053;51.382;6.768;2023-04-08T02:05:09;0.80;;;0.80;;
11986;SDS011;6053;51.382;6.768;2023-04-08T02:07:37;0.95;;;0.95;;
11986;SDS011;6053;51.382;6.768;2023-04-08T02:10:06;0.80;;;0.80;;
11986;SDS011;6053;51.382;6.768;2023-04-08T02:12:36;0.93;;;0.93;;
11986;SDS011;6053;51.382;6.768;2023-04-08T02:15:05;0.80;;;0.80;;
11986;SDS011;6053;51.382;6.768;2023-04-08T02:17:37;1.00;;;0.90;;
11986;SDS011;6053;51.382;6.768;2023-04-08T02:20:13;0.82;;;0.82;;
11986;SDS011;6053;51.382;6.768;2023-04-08T02:22:47;0.90;;;0.90;;
11986;SDS011;6053;51.382;6.768;2023-04-08T02:25:33;0.93;;;0.93;;
11986;SDS011;6053;51.382;6.768;2023-04-08T02:28:08;0.90;;;0.90;;
11986;SDS011;6053;51.382;6.768;2023-04-08T02:30:40;1.48;;;1.48;;
11986;SDS011;6053;51.382;6.768;2023-04-08T02:33:11;2.08;;;1.98;;
11986;SDS011;6053;51.382;6.768;2023-04-08T02:35:41;2.33;;;2.22;;
11986;SDS011;6053;51.382;6.768;2023-04-08T02:38:11;1.20;;;1.20;;
11986;SDS011;6053;51.382;6.768;2023-04-08T02:40:39;0.90;;;0.90;;
11986;SDS011;6053;51.382;6.768;2023-04-08T02:43:09;1.00;;;1.00;;
11986;SDS011;6053;51.382;6.768;2023-04-08T02:45:40;0.93;;;0.93;;
11986;SDS011;6053;51.382;6.768;2023-04-08T02:48:09;1.00;;;1.00;;
11986;SDS011;6053;51.382;6.768;2023-04-08T02:50:37;0.90;;;0.90;;
11986;SDS011;6053;51.382;6.768;2023-04-08T02:53:07;0.90;;;0.90;;
11986;SDS011;6053;51.382;6.768;2023-04-08T02:55:36;1.00;;;1.00;;
11986;SDS011;6053;51.382;6.768;2023-04-08T02:58:05;0.80;;;0.80;;
11986;SDS011;6053;51.382;6.768;2023-04-08T03:00:34;0.90;;;0.90;;
11986;SDS011;6053;51.382;6.768;2023-04-08T03:03:04;0.90;;;0.90;;
11986;SDS011;6053;51.382;6.768;2023-04-08T03:05:33;0.93;;;0.93;;
11986;SDS011;6053;51.382;6.768;2023-04-08T03:08:01;0.82;;;0.82;;
11986;SDS011;6053;51.382;6.768;2023-04-08T03:10:30;1.00;;;1.00;;
11986;SDS011;6053;51.382;6.768;2023-04-08T03:12:58;0.80;;;0.80;;
11986;SDS011;6053;51.382;6.768;2023-04-08T03:15:26;0.93;;;0.93;;
11986;SDS011;6053;51.382;6.768;2023-04-08T03:17:56;0.95;;;0.95;;
11986;SDS011;6053;51.382;6.768;2023-04-08T03:20:24;0.90;;;0.90;;
11986;SDS011;6053;51.382;6.768;2023-04-08T03:22:52;1.00;;;1.00;;
11986;SDS011;6053;51.382;6.768;2023-04-08T03:25:21;0.93;;;0.93;;
11986;SDS011;6053;51.382;6.768;2023-04-08T03:27:49;1.00;;;1.00;;
11986;SDS011;6053;51.382;6.768;2023-04-08T03:30:17;0.90;;;0.90;;
11986;SDS011;6053;51.382;6.768;2023-04-08T03:32:46;0.90;;;0.90;;
11986;SDS011;6053;51.382;6.768;2023-04-08T03:35:15;0.90;;;0.90;;
11986;SDS011;6053;51.382;6.768;2023-04-08T03:37:44;0.90;;;0.90;;
11986;SDS011;6053;51.382;6.768;2023-04-08T03:40:12;0.85;;;0.85;;
11986;SDS011;6053;51.382;6.768;2023-04-08T03:42:41;0.87;;;0.87;;
11986;SDS011;6053;51.382;6.768;2023-04-08T03:45:09;1.00;;;1.00;;
11986;SDS011;6053;51.382;6.768;2023-04-08T03:47:37;1.10;;;1.10;;
11986;SDS011;6053;51.382;6.768;2023-04-08T03:50:06;1.08;;;1.08;;
11986;SDS011;6053;51.382;6.768;2023-04-08T03:52:37;0.80;;;0.80;;
11986;SDS011;6053;51.382;6.768;2023-04-08T03:55:05;1.00;;;1.00;;
11986;SDS011;6053;51.382;6.768;2023-04-08T03:57:34;0.98;;;0.98;;
11986;SDS011;6053;51.382;6.768;2023-04-08T04:00:03;0.93;;;0.93;;
11986;SDS011;6053;51.382;6.768;2023-04-08T04:02:33;0.80;;;0.80;;
11986;SDS011;6053;51.382;6.768;2023-04-08T04:05:01;1.10;;;1.10;;
11986;SDS011;6053;51.382;6.768;2023-04-08T04:07:30;0.90;;;0.90;;
11986;SDS011;6053;51.382;6.768;2023-04-08T04:09:59;0.90;;;0.90;;
11986;SDS011;6053;51.382;6.768;2023-04-08T04:12:28;1.08;;;1.08;;
11986;SDS011;6053;51.382;6.768;2023-04-08T04:14:56;1.00;;;1.00;;
11986;SDS011;6053;51.382;6.768;2023-04-08T04:17:24;1.05;;;1.05;;
11986;SDS011;6053;51.382;6.768;2023-04-08T04:19:52;1.00;;;1.00;;
11986;SDS011;6053;51.382;6.768;2023-04-08T04:22:21;1.20;;;1.20;;
11986;SDS011;6053;51.382;6.768;2023-04-08T04:24:49;1.80;;;1.67;;
11986;SDS011;6053;51.382;6.768;2023-04-08T04:27:19;1.10;;;1.10;;
11986;SDS011;6053;51.382;6.768;2023-04-08T04:29:47;0.93;;;0.93;;
11986;SDS011;6053;51.382;6.768;2023-04-08T04:32:15;1.10;;;1.10;;
11986;SDS011;6053;51.382;6.768;2023-04-08T04:34:44;1.02;;;1.02;;
11986;SDS011;6053;51.382;6.768;2023-04-08T04:37:12;1.05;;;1.05;;
11986;SDS011;6053;51.382;6.768;2023-04-08T04:39:41;1.13;;;1.13;;
11986;SDS011;6053;51.382;6.768;2023-04-08T04:42:09;0.80;;;0.80;;
11986;SDS011;6053;51.382;6.768;2023-04-08T04:44:39;1.10;;;1.10;;
11986;SDS011;6053;51.382;6.768;2023-04-08T04:47:07;1.02;;;1.02;;
11986;SDS011;6053;51.382;6.768;2023-04-08T04:49:36;1.20;;;1.20;;
11986;SDS011;6053;51.382;6.768;2023-04-08T04:52:05;1.10;;;1.10;;
11986;SDS011;6053;51.382;6.768;2023-04-08T04:54:33;1.40;;;1.23;;
11986;SDS011;6053;51.382;6.768;2023-04-08T04:57:01;0.93;;;0.93;;
11986;SDS011;6053;51.382;6.768;2023-04-08T04:59:30;1.10;;;1.10;;
11986;SDS011;6053;51.382;6.768;2023-04-08T05:01:59;0.90;;;0.90;;
11986;SDS011;6053;51.382;6.768;2023-04-08T05:04:28;1.00;;;1.00;;
11986;SDS011;6053;51.382;6.768;2023-04-08T05:06:57;1.20;;;1.20;;
11986;SDS011;6053;51.382;6.768;2023-04-08T05:09:27;1.10;;;1.10;;
11986;SDS011;6053;51.382;6.768;2023-04-08T05:11:56;1.10;;;1.10;;
11986;SDS011;6053;51.382;6.768;2023-04-08T05:14:24;1.08;;;1.08;;
11986;SDS011;6053;51.382;6.768;2023-04-08T05:16:55;4.07;;;2.47;;
11986;SDS011;6053;51.382;6.768;2023-04-08T05:19:25;1.70;;;1.70;;
11986;SDS011;6053;51.382;6.768;2023-04-08T05:21:53;2.70;;;2.50;;
11986;SDS011;6053;51.382;6.768;2023-04-08T05:24:21;2.70;;;1.90;;
11986;SDS011;6053;51.382;6.768;2023-04-08T05:26:50;2.10;;;2.00;;
11986;SDS011;6053;51.382;6.768;2023-04-08T05:29:18;1.50;;;1.50;;
11986;SDS011;6053;51.382;6.768;2023-04-08T05:31:47;2.10;;;2.00;;
11986;SDS011;6053;51.382;6.768;2023-04-08T05:34:16;2.00;;;1.90;;
11986;SDS011;6053;51.382;6.768;2023-04-08T05:36:49;1.23;;;1.23;;
11986;SDS011;6053;51.382;6.768;2023-04-08T05:39:18;1.38;;;1.38;;
11986;SDS011;6053;51.382;6.768;2023-04-08T05:41:46;1.27;;;1.27;;
11986;SDS011;6053;51.382;6.768;2023-04-08T05:44:14;1.10;;;1.10;;
11986;SDS011;6053;51.382;6.768;2023-04-08T05:46:42;1.10;;;1.10;;
11986;SDS011;6053;51.382;6.768;2023-04-08T05:49:11;1.47;;;1.47;;
11986;SDS011;6053;51.382;6.768;2023-04-08T05:51:39;1.13;;;1.13;;
11986;SDS011;6053;51.382;6.768;2023-04-08T05:54:09;1.42;;;1.40;;
11986;SDS011;6053;51.382;6.768;2023-04-08T05:56:37;2.78;;;2.58;;
11986;SDS011;6053;51.382;6.768;2023-04-08T05:59:05;1.63;;;1.60;;
11986;SDS011;6053;51.382;6.768;2023-04-08T06:01:33;1.50;;;1.40;;
11986;SDS011;6053;51.382;6.768;2023-04-08T06:04:02;2.13;;;1.93;;
11986;SDS011;6053;51.382;6.768;2023-04-08T06:06:30;1.60;;;1.60;;
11986;SDS011;6053;51.382;6.768;2023-04-08T06:08:59;1.30;;;1.30;;
11986;SDS011;6053;51.382;6.768;2023-04-08T06:11:28;1.27;;;1.27;;
11986;SDS011;6053;51.382;6.768;2023-04-08T06:13:56;1.80;;;1.70;;
11986;SDS011;6053;51.382;6.768;2023-04-08T06:16:25;1.30;;;1.30;;
11986;SDS011;6053;51.382;6.768;2023-04-08T06:18:53;2.45;;;2.28;;
11986;SDS011;6053;51.382;6.768;2023-04-08T06:21:21;1.40;;;1.40;;
11986;SDS011;6053;51.382;6.768;2023-04-08T06:23:49;1.63;;;1.55;;
11986;SDS011;6053;51.382;6.768;2023-04-08T06:26:17;1.67;;;1.58;;
11986;SDS011;6053;51.382;6.768;2023-04-08T06:28:47;5.28;;;3.53;;
11986;SDS011;6053;51.382;6.768;2023-04-08T06:31:16;1.80;;;1.70;;
11986;SDS011;6053;51.382;6.768;2023-04-08T06:33:44;3.60;;;2.55;;
11986;SDS011;6053;51.382;6.768;2023-04-08T06:36:12;6.40;;;5.10;;
11986;SDS011;6053;51.382;6.768;2023-04-08T06:38:41;2.08;;;1.80;;
11986;SDS011;6053;51.382;6.768;2023-04-08T06:41:09;2.10;;;2.00;;
11986;SDS011;6053;51.382;6.768;2023-04-08T06:43:37;2.58;;;2.38;;
11986;SDS011;6053;51.382;6.768;2023-04-08T06:46:07;4.20;;;3.80;;
11986;SDS011;6053;51.382;6.768;2023-04-08T06:48:36;2.03;;;1.93;;
11986;SDS011;6053;51.382;6.768;2023-04-08T06:51:05;2.20;;;2.10;;
11986;SDS011;6053;51.382;6.768;2023-04-08T06:53:34;2.50;;;2.30;;
11986;SDS011;6053;51.382;6.768;2023-04-08T06:56:02;2.60;;;2.40;;
11986;SDS011;6053;51.382;6.768;2023-04-08T06:58:31;2.10;;;2.00;;
11986;SDS011;6053;51.382;6.768;2023-04-08T07:00:59;4.85;;;3.67;;
11986;SDS011;6053;51.382;6.768;2023-04-08T07:03:29;2.55;;;2.35;;
11986;SDS011;6053;51.382;6.768;2023-04-08T07:05:58;2.50;;;2.30;;
11986;SDS011;6053;51.382;6.768;2023-04-08T07:08:26;3.42;;;2.92;;
11986;SDS011;6053;51.382;6.768;2023-04-08T07:10:54;2.17;;;1.98;;
11986;SDS011;6053;51.382;6.768;2023-04-08T07:13:22;3.45;;;3.13;;
11986;SDS011;6053;51.382;6.768;2023-04-08T07:15:51;3.90;;;3.10;;
11986;SDS011;6053;51.382;6.768;2023-04-08T07:18:19;3.10;;;2.80;;
11986;SDS011;6053;51.382;6.768;2023-04-08T07:20:50;6.95;;;4.75;;
11986;SDS011;6053;51.382;6.768;2023-04-08T07:23:19;4.45;;;3.85;;
11986;SDS011;6053;51.382;6.768;2023-04-08T07:25:48;3.00;;;2.80;;
11986;SDS011;6053;51.382;6.768;2023-04-08T07:28:16;9.82;;;6.10;;
11986;SDS011;6053;51.382;6.768;2023-04-08T07:30:44;2.80;;;2.60;;
11986;SDS011;6053;51.382;6.768;2023-04-08T07:33:13;3.45;;;2.97;;
11986;SDS011;6053;51.382;6.768;2023-04-08T07:35:41;3.65;;;3.00;;
11986;SDS011;6053;51.382;6.768;2023-04-08T07:38:14;5.25;;;3.70;;
11986;SDS011;6053;51.382;6.768;2023-04-08T07:40:42;8.63;;;5.95;;
11986;SDS011;6053;51.382;6.768;2023-04-08T07:43:10;19.63;;;10.82;;
11986;SDS011;6053;51.382;6.768;2023-04-08T07:45:38;6.40;;;3.43;;
11986;SDS011;6053;51.382;6.768;2023-04-08T07:48:07;2.80;;;2.60;;
11986;SDS011;6053;51.382;6.768;2023-04-08T07:50:35;3.42;;;3.13;;
11986;SDS011;6053;51.382;6.768;2023-04-08T07:53:25;3.33;;;3.03;;
11986;SDS011;6053;51.382;6.768;2023-04-08T07:55:53;3.15;;;2.80;;
11986;SDS011;6053;51.382;6.768;2023-04-08T07:58:22;7.37;;;4.93;;
11986;SDS011;6053;51.382;6.768;2023-04-08T08:00:51;2.77;;;2.57;;
11986;SDS011;6053;51.382;6.768;2023-04-08T08:03:19;2.80;;;2.60;;
11986;SDS011;6053;51.382;6.768;2023-04-08T08:05:48;3.53;;;3.15;;
11986;SDS011;6053;51.382;6.768;2023-04-08T08:08:16;3.75;;;3.30;;
11986;SDS011;6053;51.382;6.768;2023-04-08T08:10:45;2.65;;;2.45;;
11986;SDS011;6053;51.382;6.768;2023-04-08T08:13:14;5.07;;;4.30;;
11986;SDS011;6053;51.382;6.768;2023-04-08T08:15:46;2.45;;;2.25;;
11986;SDS011;6053;51.382;6.768;2023-04-08T08:18:19;4.13;;;3.50;;
11986;SDS011;6053;51.382;6.768;2023-04-08T08:20:48;7.15;;;4.40;;
11986;SDS011;6053;51.382;6.768;2023-04-08T08:23:16;2.60;;;2.40;;
11986;SDS011;6053;51.382;6.768;2023-04-08T08:25:45;5.30;;;3.80;;
11986;SDS011;6053;51.382;6.768;2023-04-08T08:28:14;2.50;;;2.30;;
11986;SDS011;6053;51.382;6.768;2023-04-08T08:30:42;3.13;;;2.87;;
11986;SDS011;6053;51.382;6.768;2023-04-08T08:33:10;9.85;;;6.15;;
11986;SDS011;6053;51.382;6.768;2023-04-08T08:35:38;4.15;;;3.22;;
11986;SDS011;6053;51.382;6.768;2023-04-08T08:38:06;3.95;;;3.20;;
11986;SDS011;6053;51.382;6.768;2023-04-08T08:40:34;4.97;;;3.20;;
11986;SDS011;6053;51.382;6.768;2023-04-08T08:43:04;2.87;;;2.67;;
11986;SDS011;6053;51.382;6.768;2023-04-08T08:45:32;3.53;;;3.22;;
11986;SDS011;6053;51.382;6.768;2023-04-08T08:48:01;2.90;;;2.70;;
11986;SDS011;6053;51.382;6.768;2023-04-08T08:50:29;5.10;;;4.47;;
11986;SDS011;6053;51.382;6.768;2023-04-08T08:52:59;3.45;;;3.15;;
11986;SDS011;6053;51.382;6.768;2023-04-08T08:55:29;17.25;;;9.52;;
11986;SDS011;6053;51.382;6.768;2023-04-08T08:58:20;5.55;;;4.25;;
11986;SDS011;6053;51.382;6.768;2023-04-08T09:00:48;16.10;;;8.77;;
11986;SDS011;6053;51.382;6.768;2023-04-08T09:03:17;16.73;;;9.50;;
11986;SDS011;6053;51.382;6.768;2023-04-08T09:05:47;9.10;;;5.50;;
11986;SDS011;6053;51.382;6.768;2023-04-08T09:08:23;3.90;;;3.38;;
11986;SDS011;6053;51.382;6.768;2023-04-08T09:11:11;8.15;;;5.50;;
11986;SDS011;6053;51.382;6.768;2023-04-08T09:13:43;8.70;;;5.18;;
11986;SDS011;6053;51.382;6.768;2023-04-08T09:16:13;7.20;;;5.15;;
11986;SDS011;6053;51.382;6.768;2023-04-08T09:18:44;5.03;;;3.93;;
11986;SDS011;6053;51.382;6.768;2023-04-08T09:21:15;3.90;;;3.25;;
11986;SDS011;6053;51.382;6.768;2023-04-08T09:23:45;8.00;;;5.35;;
11986;SDS011;6053;51.382;6.768;2023-04-08T09:26:15;4.88;;;3.40;;
11986;SDS011;6053;51.382;6.768;2023-04-08T09:28:57;10.00;;;6.03;;
11986;SDS011;6053;51.382;6.768;2023-04-08T09:31:43;21.05;;;12.10;;
11986;SDS011;6053;51.382;6.768;2023-04-08T09:34:13;10.00;;;6.68;;
11986;SDS011;6053;51.382;6.768;2023-04-08T09:36:44;9.55;;;6.47;;
11986;SDS011;6053;51.382;6.768;2023-04-08T09:39:14;10.68;;;7.10;;
11986;SDS011;6053;51.382;6.768;2023-04-08T09:41:42;6.17;;;4.70;;
11986;SDS011;6053;51.382;6.768;2023-04-08T09:44:15;21.15;;;11.73;;
11986;SDS011;6053;51.382;6.768;2023-04-08T09:46:46;17.20;;;10.73;;
11986;SDS011;6053;51.382;6.768;2023-04-08T09:49:28;12.37;;;7.30;;
11986;SDS011;6053;51.382;6.768;2023-04-08T09:52:05;21.67;;;12.30;;
11986;SDS011;6053;51.382;6.768;2023-04-08T09:54:38;14.45;;;9.63;;
11986;SDS011;6053;51.382;6.768;2023-04-08T09:57:15;7.70;;;5.35;;
11986;SDS011;6053;51.382;6.768;2023-04-08T10:00:09;10.82;;;7.57;;
11986;SDS011;6053;51.382;6.768;2023-04-08T10:02:53;14.70;;;10.60;;
11986;SDS011;6053;51.382;6.768;2023-04-08T10:05:27;10.90;;;9.77;;
11986;SDS011;6053;51.382;6.768;2023-04-08T10:07:58;5.07;;;4.57;;
11986;SDS011;6053;51.382;6.768;2023-04-08T10:10:27;8.07;;;7.28;;
11986;SDS011;6053;51.382;6.768;2023-04-08T10:12:56;5.22;;;4.70;;
11986;SDS011;6053;51.382;6.768;2023-04-08T10:15:26;5.43;;;4.93;;
11986;SDS011;6053;51.382;6.768;2023-04-08T10:21:01;9.30;;;7.10;;
11986;SDS011;6053;51.382;6.768;2023-04-08T10:26:34;10.55;;;8.70;;
11986;SDS011;6053;51.382;6.768;2023-04-08T10:32:01;5.40;;;4.70;;
11986;SDS011;6053;51.382;6.768;2023-04-08T10:34:29;6.17;;;5.07;;
11986;SDS011;6053;51.382;6.768;2023-04-08T10:36:58;8.75;;;7.43;;
11986;SDS011;6053;51.382;6.768;2023-04-08T10:39:27;5.65;;;5.15;;
11986;SDS011;6053;51.382;6.768;2023-04-08T10:41:56;4.72;;;3.25;;
11986;SDS011;6053;51.382;6.768;2023-04-08T10:44:27;6.68;;;5.78;;
11986;SDS011;6053;51.382;6.768;2023-04-08T10:46:56;4.63;;;4.22;;
11986;SDS011;6053;51.382;6.768;2023-04-08T10:49:32;5.35;;;4.68;;
11986;SDS011;6053;51.382;6.768;2023-04-08T10:52:05;5.55;;;4.00;;
11986;SDS011;6053;51.382;6.768;2023-04-08T10:54:35;3.22;;;3.03;;
11986;SDS011;6053;51.382;6.768;2023-04-08T10:57:04;3.75;;;3.45;;
11986;SDS011;6053;51.382;6.768;2023-04-08T10:59:33;4.97;;;3.90;;
11986;SDS011;6053;51.382;6.768;2023-04-08T11:02:02;1.80;;;1.70;;
11986;SDS011;6053;51.382;6.768;2023-04-08T11:04:32;3.60;;;3.30;;
11986;SDS011;6053;51.382;6.768;2023-04-08T11:07:08;2.80;;;2.60;;
11986;SDS011;6053;51.382;6.768;2023-04-08T11:09:36;2.83;;;2.63;;
11986;SDS011;6053;51.382;6.768;2023-04-08T11:12:06;2.47;;;2.38;;
11986;SDS011;6053;51.382;6.768;2023-04-08T11:14:35;2.60;;;2.40;;
11986;SDS011;6053;51.382;6.768;2023-04-08T11:17:04;2.72;;;2.53;;
11986;SDS011;6053;51.382;6.768;2023-04-08T11:19:35;3.40;;;3.15;;
11986;SDS011;6053;51.382;6.768;2023-04-08T11:22:04;2.45;;;2.33;;
11986;SDS011;6053;51.382;6.768;2023-04-08T11:24:34;4.45;;;3.42;;
11986;SDS011;6053;51.382;6.768;2023-04-08T11:27:03;3.70;;;2.47;;
11986;SDS011;6053;51.382;6.768;2023-04-08T11:29:33;3.33;;;3.00;;
11986;SDS011;6053;51.382;6.768;2023-04-08T11:32:03;2.53;;;2.28;;
11986;SDS011;6053;51.382;6.768;2023-04-08T11:34:32;3.35;;;3.05;;
11986;SDS011;6053;51.382;6.768;2023-04-08T11:37:06;2.13;;;2.03;;
11986;SDS011;6053;51.382;6.768;2023-04-08T11:39:39;3.03;;;2.78;;
11986;SDS011;6053;51.382;6.768;2023-04-08T11:42:10;2.13;;;2.03;;
11986;SDS011;6053;51.382;6.768;2023-04-08T11:44:53;2.03;;;1.90;;
11986;SDS011;6053;51.382;6.768;2023-04-08T11:47:28;2.83;;;2.30;;
11986;SDS011;6053;51.382;6.768;2023-04-08T11:49:58;2.20;;;2.10;;
11986;SDS011;6053;51.382;6.768;2023-04-08T11:52:45;2.50;;;2.30;;
11986;SDS011;6053;51.382;6.768;2023-04-08T11:55:20;1.80;;;1.70;;
11986;SDS011;6053;51.382;6.768;2023-04-08T11:57:50;2.10;;;1.97;;
11986;SDS011;6053;51.382;6.768;2023-04-08T12:00:19;2.20;;;2.10;;
11986;SDS011;6053;51.382;6.768;2023-04-08T12:02:49;2.67;;;2.47;;
11986;SDS011;6053;51.382;6.768;2023-04-08T12:05:19;1.83;;;1.73;;
11986;SDS011;6053;51.382;6.768;2023-04-08T12:07:49;0.90;;;0.90;;
11986;SDS011;6053;51.382;6.768;2023-04-08T12:10:17;1.85;;;1.75;;
11986;SDS011;6053;51.382;6.768;2023-04-08T12:12:46;1.13;;;1.13;;
11986;SDS011;6053;51.382;6.768;2023-04-08T12:15:14;1.63;;;1.55;;
11986;SDS011;6053;51.382;6.768;2023-04-08T12:17:43;2.50;;;2.30;;
11986;SDS011;6053;51.382;6.768;2023-04-08T12:20:12;2.50;;;2.38;;
11986;SDS011;6053;51.382;6.768;2023-04-08T12:22:42;2.65;;;2.45;;
11986;SDS011;6053;51.382;6.768;2023-04-08T12:25:12;3.10;;;2.58;;
11986;SDS011;6053;51.382;6.768;2023-04-08T12:27:40;2.42;;;2.33;;
11986;SDS011;6053;51.382;6.768;2023-04-08T12:30:09;3.42;;;3.13;;
11986;SDS011;6053;51.382;6.768;2023-04-08T12:32:41;3.50;;;2.83;;
11986;SDS011;6053;51.382;6.768;2023-04-08T12:35:11;2.95;;;2.47;;
11986;SDS011;6053;51.382;6.768;2023-04-08T12:37:40;2.60;;;2.40;;
11986;SDS011;6053;51.382;6.768;2023-04-08T12:40:08;2.28;;;2.17;;
11986;SDS011;6053;51.382;6.768;2023-04-08T12:42:38;2.87;;;2.27;;
11986;SDS011;6053;51.382;6.768;2023-04-08T12:45:08;1.60;;;1.60;;
11986;SDS011;6053;51.382;6.768;2023-04-08T12:47:36;2.25;;;2.05;;
11986;SDS011;6053;51.382;6.768;2023-04-08T12:50:05;2.10;;;1.90;;
11986;SDS011;6053;51.382;6.768;2023-04-08T12:52:35;1.90;;;1.80;;
11986;SDS011;6053;51.382;6.768;2023-04-08T12:55:04;3.75;;;2.75;;
11986;SDS011;6053;51.382;6.768;2023-04-08T12:57:33;3.13;;;2.77;;
11986;SDS011;6053;51.382;6.768;2023-04-08T13:00:03;2.80;;;2.60;;
11986;SDS011;6053;51.382;6.768;2023-04-08T13:02:33;2.50;;;2.30;;
11986;SDS011;6053;51.382;6.768;2023-04-08T13:05:01;2.53;;;2.40;;
11986;SDS011;6053;51.382;6.768;2023-04-08T13:07:30;2.40;;;2.20;;
11986;SDS011;6053;51.382;6.768;2023-04-08T13:09:59;2.80;;;2.60;;
11986;SDS011;6053;51.382;6.768;2023-04-08T13:12:28;1.93;;;1.83;;
11986;SDS011;6053;51.382;6.768;2023-04-08T13:14:57;1.42;;;1.33;;
11986;SDS011;6053;51.382;6.768;2023-04-08T13:17:27;2.50;;;2.30;;
11986;SDS011;6053;51.382;6.768;2023-04-08T13:19:56;1.98;;;1.88;;
11986;SDS011;6053;51.382;6.768;2023-04-08T13:22:24;2.70;;;2.50;;
11986;SDS011;6053;51.382;6.768;2023-04-08T13:24:53;1.70;;;1.60;;
11986;SDS011;6053;51.382;6.768;2023-04-08T13:27:22;1.67;;;1.58;;
11986;SDS011;6053;51.382;6.768;2023-04-08T13:29:50;2.00;;;1.90;;
11986;SDS011;6053;51.382;6.768;2023-04-08T13:32:19;2.80;;;1.90;;
11986;SDS011;6053;51.382;6.768;2023-04-08T13:34:48;2.42;;;2.33;;
11986;SDS011;6053;51.382;6.768;2023-04-08T13:37:17;2.30;;;2.15;;
11986;SDS011;6053;51.382;6.768;2023-04-08T13:39:45;4.97;;;2.70;;
11986;SDS011;6053;51.382;6.768;2023-04-08T13:42:14;2.80;;;2.60;;
11986;SDS011;6053;51.382;6.768;2023-04-08T13:44:42;2.47;;;2.35;;
11986;SDS011;6053;51.382;6.768;2023-04-08T13:47:11;2.72;;;2.60;;
11986;SDS011;6053;51.382;6.768;2023-04-08T13:49:39;2.20;;;2.00;;
11986;SDS011;6053;51.382;6.768;2023-04-08T13:52:09;3.17;;;2.92;;
11986;SDS011;6053;51.382;6.768;2023-04-08T13:54:38;2.53;;;2.33;;
11986;SDS011;6053;51.382;6.768;2023-04-08T13:57:06;2.00;;;1.90;;
11986;SDS011;6053;51.382;6.768;2023-04-08T13:59:35;2.50;;;2.30;;
11986;SDS011;6053;51.382;6.768;2023-04-08T14:02:03;2.93;;;2.73;;
11986;SDS011;6053;51.382;6.768;2023-04-08T14:04:32;1.23;;;1.20;;
11986;SDS011;6053;51.382;6.768;2023-04-08T14:07:01;2.55;;;2.45;;
11986;SDS011;6053;51.382;6.768;2023-04-08T14:09:31;2.92;;;2.40;;
11986;SDS011;6053;51.382;6.768;2023-04-08T14:12:01;1.90;;;1.80;;
11986;SDS011;6053;51.382;6.768;2023-04-08T14:14:29;3.00;;;2.80;;
11986;SDS011;6053;51.382;6.768;2023-04-08T14:16:58;2.38;;;2.28;;
11986;SDS011;6053;51.382;6.768;2023-04-08T14:19:26;3.00;;;2.80;;
11986;SDS011;6053;51.382;6.768;2023-04-08T14:21:55;2.90;;;2.70;;
11986;SDS011;6053;51.382;6.768;2023-04-08T14:24:23;3.20;;;2.97;;
11986;SDS011;6053;51.382;6.768;2023-04-08T14:26:53;2.25;;;2.13;;
11986;SDS011;6053;51.382;6.768;2023-04-08T14:29:23;2.22;;;2.13;;
11986;SDS011;6053;51.382;6.768;2023-04-08T14:31:52;3.60;;;3.40;;
11986;SDS011;6053;51.382;6.768;2023-04-08T14:34:22;1.95;;;1.85;;
11986;SDS011;6053;51.382;6.768;2023-04-08T14:36:51;4.47;;;3.15;;
11986;SDS011;6053;51.382;6.768;2023-04-08T14:39:19;2.50;;;2.22;;
11986;SDS011;6053;51.382;6.768;2023-04-08T14:41:48;3.28;;;3.08;;
11986;SDS011;6053;51.382;6.768;2023-04-08T14:44:17;2.73;;;2.53;;
11986;SDS011;6053;51.382;6.768;2023-04-08T14:46:46;4.07;;;3.77;;
11986;SDS011;6053;51.382;6.768;2023-04-08T14:49:15;1.90;;;1.80;;
11986;SDS011;6053;51.382;6.768;2023-04-08T14:51:43;2.50;;;2.40;;
11986;SDS011;6053;51.382;6.768;2023-04-08T14:54:11;3.40;;;3.10;;
11986;SDS011;6053;51.382;6.768;2023-04-08T14:56:42;2.47;;;2.35;;
11986;SDS011;6053;51.382;6.768;2023-04-08T14:59:10;3.70;;;3.50;;
11986;SDS011;6053;51.382;6.768;2023-04-08T15:01:40;2.20;;;2.10;;
11986;SDS011;6053;51.382;6.768;2023-04-08T15:04:10;2.55;;;2.35;;
11986;SDS011;6053;51.382;6.768;2023-04-08T15:06:38;3.08;;;2.88;;
11986;SDS011;6053;51.382;6.768;2023-04-08T15:09:07;3.80;;;3.50;;
11986;SDS011;6053;51.382;6.768;2023-04-08T15:11:36;2.40;;;2.28;;
11986;SDS011;6053;51.382;6.768;2023-04-08T15:14:04;3.90;;;3.60;;
11986;SDS011;6053;51.382;6.768;2023-04-08T15:16:33;3.03;;;2.83;;
11986;SDS011;6053;51.382;6.768;2023-04-08T15:19:03;2.93;;;2.77;;
11986;SDS011;6053;51.382;6.768;2023-04-08T15:21:31;3.90;;;3.60;;
11986;SDS011;6053;51.382;6.768;2023-04-08T15:24:00;2.90;;;2.70;;
11986;SDS011;6053;51.382;6.768;2023-04-08T15:26:28;3.25;;;3.05;;